EIK weather

Erie Municipal Airport
Erie, Colorado, United States

Public forecast

Using degrees Fahrenheit for public forecast. Weather courtesy of forecast.io.

METAR (pilot weather report)

Retrieved 2019/07/24 01:42 UTC (7 minutes ago):

KEIK 240142Z AUTO 28006KT 10SM CLR 26/14 A3027 RMK AO2 T02620141

TAF (pilot weather forecast)

Forecast is more than 12 hours old.

Closest forecast is Rocky Mountain Metropolitan Airport, 6.9 nm (12.7 km) SSW. Retrieved 2019/07/23 00:39 UTC (1 day ago):

TAF KBJC 232335Z 2400/2424 35009KT P6SM FEW080 BKN150 FM240200 34007KT P6SM FEW080 SCT150 FM240600 29005KT P6SM FEW220 FM241500 VRB05KT P6SM FEW220 FM241800 04008KT P6SM FEW080 SCT150 BKN220 PROB30 2421/2424 VRB20G32KT -TSRA BKN060CB